METAR AND TAF INFORMATION
METAR FOR ENCN
ADDS - METARS form results

(0057 UTC 11 August 2020)
Data provider http://aviationweather.gov/metar/data/
 
METAR text: ENCN 110050Z AUTO 04005KT 9999 NCD 13/11 Q1024
Conditions at: ENCN (KRISTIANSAND/KJE, NO) observed 0050 UTC 11 August 2020
Temperature: 13.0°C (55°F)
Dewpoint: 11.0°C (52°F) [RH = 88%]
Pressure (altimeter): 30.24 inches Hg (1024.0 mb)
Winds: from the NE (40 degrees) at 6 MPH (5 knots; 2.6 m/s)
Visibility: 6 or more miles (10+ km)
Ceiling: at least 12,000 feet AGL
Clouds: sky clear below 12,000 feet AGL
Weather: no significant weather observed at this time

METAR text: ENCN 110020Z AUTO 06004KT 9999 NCD 14/12 Q1024
Conditions at: ENCN (KRISTIANSAND/KJE, NO) observed 0020 UTC 11 August 2020
Temperature: 14.0°C (57°F)
Dewpoint: 12.0°C (54°F) [RH = 88%]
Pressure (altimeter): 30.24 inches Hg (1024.0 mb)
Winds: from the ENE (60 degrees) at 5 MPH (4 knots; 2.1 m/s)
Visibility: 6 or more miles (10+ km)
Ceiling: at least 12,000 feet AGL
Clouds: sky clear below 12,000 feet AGL
Weather: no significant weather observed at this time

Forecast for: ENCN (KRISTIANSAND/KJE, NO)
Text: TAF ENCN 101400Z 1015/1019 06008KT 9999 BKN030
Forecast period: 1500 to 1900 UTC 10 August 2020
Forecast type: FROM: standard forecast or significant change
Winds: from the ENE (60 degrees) at 9 MPH (8 knots; 4.1 m/s)
Visibility: 6 or more miles (10+ km)
Ceiling: 3000 feet AGL
Clouds: broken clouds at 3000 feet AGL
Weather: no significant weather forecast for this period

 AIRPORT MAP

 RUNWAY INFORMATION
Runway 04 Runway length 6660 ft Runway width 148 ft
Runway elevation 41 ft Runway displaced threshold 394 ft Runway heading 35
Runway 22 Runway length 6660 ft Runway width 148 ft
Runway elevation 52 ft Runway displaced threshold 623 ft Runway heading 215

 AIRPORT FREQUENCIES
Type ATIS Name INFO Frequency 124.475 MHZ
Type TWR Name TWR Frequency 118.1 MHZ

 AIRPORT NEAR NAVIGATION AIDS
Type NDB Name Odderoy Frequency 372 KHZ
Type VOR-DME Name Svensheia Frequency 112100 KHZ





Powered by Virtual Airlines Manager